الصفحة الرئيسية
METAR-TAF:

METAR-TAF

مطار :

بورغاس, بلغاريا

دائرة عرض: 42-29N, خط طول: 027-29E, ارتفاع: 16 متر

مراقبة الطقس الحالي

تاريخ ووقت الإصدار 24 دقيقة قبل الساعة 01:30UTC
ريح 4 عقدة من الجنوب الغربي
درجة الحرارة 20°درجة مئوية
الرطوبة 60%
ضغط 1011 hPa
الرؤية 10 كم أو أكثر

METAR: LBBG 150130Z AUTO 23004KT 9999 NCD 20/12 Q1011 NOSIG

زمن: 04:54 (01:54 UTC)

توقعات

تاريخ ووقت الإصدار 2ساعات و 54 دقيقة قبل الساعة 23:00UTC
التوقعات صالحة من15 الساعة 00 UTC إلى 15 الساعة 24 UTC
ريح 4 عقدةمن اتجاهات متغيرة
الرؤية 10 كم أو أكثر
الغيوم لا تقل 1500 م ولا وجود لمزنة ركامية السحاب الأسود
أصبح
من 15 الساعة 07 UTC إلى 15 الساعة 09 UTC
ريح 14 عقدة من الشرق
أصبح
من 15 الساعة 19 UTC إلى 15 الساعة 21 UTC
ريح 4 عقدةمن اتجاهات متغيرة

TAF: LBBG 142300Z 1500/1524 VRB04KT CAVOK BECMG 1507/1509 09014KT BECMG 1519/1521 VRB04KT

أرصاد الطقس والتوقعات من أكثر من 4000 مطار (تقارير الطقس للمطار METAR والتنبؤ بالطقس بالمطارTAF).

المحطات المتاحة هي النقط الصفراء والحمراء على الخريطة.

حرك المؤشر فوق النقطة لمعرفة اسم المحطة.

ثم انقر لمعرفة أرصاد وتوقعات الطقس.

لتغيير الخارطة: اضغط على الأزرار الخضراء مع رمز الصليب الأسود للتكبير. على الزر الأخضر مع شرطة للتصغير، أو على الأسهم الخضراء للخرائط المجاورة.


METAR-TAF: